sensor_id;sensor_type;location;lat;lon;timestamp;pressure;altitude;pressure_sealevel;temperature;humidity
72548;BME280;60570;50.848;6.776;2023-02-18T00:00:50;101304.97;;;12.22;71.80
72548;BME280;60570;50.848;6.776;2023-02-18T00:01:51;101309.38;;;12.23;71.92
72548;BME280;60570;50.848;6.776;2023-02-18T00:02:52;101297.41;;;12.22;71.69
72548;BME280;60570;50.848;6.776;2023-02-18T00:03:56;101303.81;;;12.23;71.96
72548;BME280;60570;50.848;6.776;2023-02-18T00:04:57;101295.44;;;12.23;71.89
72548;BME280;60570;50.848;6.776;2023-02-18T00:05:57;101311.34;;;12.22;71.52
72548;BME280;60570;50.848;6.776;2023-02-18T00:06:58;101295.44;;;12.23;71.72
72548;BME280;60570;50.848;6.776;2023-02-18T00:07:59;101298.91;;;12.20;72.27
72548;BME280;60570;50.848;6.776;2023-02-18T00:09:00;101290.22;;;12.21;72.05
72548;BME280;60570;50.848;6.776;2023-02-18T00:10:02;101286.59;;;12.21;71.79
72548;BME280;60570;50.848;6.776;2023-02-18T00:11:05;101296.63;;;12.22;71.64
72548;BME280;60570;50.848;6.776;2023-02-18T00:12:06;101297.09;;;12.24;71.78
72548;BME280;60570;50.848;6.776;2023-02-18T00:13:06;101293.00;;;12.21;71.81
72548;BME280;60570;50.848;6.776;2023-02-18T00:14:11;101299.69;;;12.20;72.05
72548;BME280;60570;50.848;6.776;2023-02-18T00:15:12;101302.50;;;12.20;72.28
72548;BME280;60570;50.848;6.776;2023-02-18T00:16:13;101303.31;;;12.21;72.02
72548;BME280;60570;50.848;6.776;2023-02-18T00:17:13;101299.41;;;12.22;72.24
72548;BME280;60570;50.848;6.776;2023-02-18T00:18:14;101297.41;;;12.22;71.78
72548;BME280;60570;50.848;6.776;2023-02-18T00:19:17;101291.84;;;12.22;71.70
72548;BME280;60570;50.848;6.776;2023-02-18T00:20:18;101301.03;;;12.23;71.92
72548;BME280;60570;50.848;6.776;2023-02-18T00:21:18;101297.09;;;12.24;71.84
72548;BME280;60570;50.848;6.776;2023-02-18T00:22:19;101297.91;;;12.24;71.74
72548;BME280;60570;50.848;6.776;2023-02-18T00:23:19;101292.66;;;12.23;71.63
72548;BME280;60570;50.848;6.776;2023-02-18T00:24:20;101297.09;;;12.24;71.59
72548;BME280;60570;50.848;6.776;2023-02-18T00:25:21;101292.66;;;12.23;71.54
72548;BME280;60570;50.848;6.776;2023-02-18T00:26:22;101296.63;;;12.22;71.66
72548;BME280;60570;50.848;6.776;2023-02-18T00:27:22;101294.63;;;12.22;71.71
72548;BME280;60570;50.848;6.776;2023-02-18T00:28:23;101291.69;;;12.19;71.86
72548;BME280;60570;50.848;6.776;2023-02-18T00:29:23;101290.22;;;12.21;71.78
72548;BME280;60570;50.848;6.776;2023-02-18T00:30:24;101286.94;;;12.19;71.90
72548;BME280;60570;50.848;6.776;2023-02-18T00:31:32;101292.19;;;12.21;71.89
72548;BME280;60570;50.848;6.776;2023-02-18T00:32:34;101301.34;;;12.21;72.11
72548;BME280;60570;50.848;6.776;2023-02-18T00:33:35;101303.66;;;12.19;72.64
72548;BME280;60570;50.848;6.776;2023-02-18T00:34:36;101302.00;;;12.18;72.09
72548;BME280;60570;50.848;6.776;2023-02-18T00:35:36;101302.19;;;12.22;72.05
72548;BME280;60570;50.848;6.776;2023-02-18T00:36:37;101301.69;;;12.20;72.06
72548;BME280;60570;50.848;6.776;2023-02-18T00:37:37;101286.09;;;12.19;71.76
72548;BME280;60570;50.848;6.776;2023-02-18T00:38:38;101282.50;;;12.18;71.72
72548;BME280;60570;50.848;6.776;2023-02-18T00:39:38;101278.91;;;12.18;72.10
72548;BME280;60570;50.848;6.776;2023-02-18T00:40:39;101278.91;;;12.18;71.92
72548;BME280;60570;50.848;6.776;2023-02-18T00:41:41;101268.56;;;12.18;71.96
72548;BME280;60570;50.848;6.776;2023-02-18T00:42:42;101266.59;;;12.19;71.98
72548;BME280;60570;50.848;6.776;2023-02-18T00:43:43;101271.06;;;12.20;72.21
72548;BME280;60570;50.848;6.776;2023-02-18T00:44:43;101263.50;;;12.20;71.73
72548;BME280;60570;50.848;6.776;2023-02-18T00:45:44;101261.88;;;12.19;71.75
72548;BME280;60570;50.848;6.776;2023-02-18T00:46:44;101255.97;;;12.21;71.50
72548;BME280;60570;50.848;6.776;2023-02-18T00:47:47;101259.91;;;12.20;71.73
72548;BME280;60570;50.848;6.776;2023-02-18T00:48:48;101260.69;;;12.20;71.68
72548;BME280;60570;50.848;6.776;2023-02-18T00:49:48;101254.34;;;12.20;71.75
72548;BME280;60570;50.848;6.776;2023-02-18T00:50:49;101266.28;;;12.20;71.68
72548;BME280;60570;50.848;6.776;2023-02-18T00:51:49;101257.13;;;12.20;71.57
72548;BME280;60570;50.848;6.776;2023-02-18T00:52:49;101258.25;;;12.19;71.87
72548;BME280;60570;50.848;6.776;2023-02-18T00:53:50;101257.91;;;12.20;71.75
72548;BME280;60570;50.848;6.776;2023-02-18T00:54:51;101260.69;;;12.20;71.50
72548;BME280;60570;50.848;6.776;2023-02-18T00:55:51;101253.50;;;12.19;71.86
72548;BME280;60570;50.848;6.776;2023-02-18T00:56:51;101253.50;;;12.19;71.71
72548;BME280;60570;50.848;6.776;2023-02-18T00:57:52;101259.09;;;12.19;71.60
72548;BME280;60570;50.848;6.776;2023-02-18T00:58:53;101259.09;;;12.19;71.68
72548;BME280;60570;50.848;6.776;2023-02-18T00:59:53;101258.59;;;12.17;71.61
72548;BME280;60570;50.848;6.776;2023-02-18T01:00:54;101256.28;;;12.19;71.60
72548;BME280;60570;50.848;6.776;2023-02-18T01:01:55;101256.63;;;12.18;71.61
72548;BME280;60570;50.848;6.776;2023-02-18T01:02:55;101249.91;;;12.19;71.73
72548;BME280;60570;50.848;6.776;2023-02-18T01:03:56;101256.28;;;12.19;71.81
72548;BME280;60570;50.848;6.776;2023-02-18T01:04:56;101257.13;;;12.20;71.57
72548;BME280;60570;50.848;6.776;2023-02-18T01:05:57;101247.94;;;12.19;72.02
72548;BME280;60570;50.848;6.776;2023-02-18T01:06:57;101258.25;;;12.19;71.57
72548;BME280;60570;50.848;6.776;2023-02-18T01:07:58;101260.22;;;12.18;71.38
72548;BME280;60570;50.848;6.776;2023-02-18T01:08:58;101263.34;;;12.17;71.92
72548;BME280;60570;50.848;6.776;2023-02-18T01:09:58;101264.16;;;12.17;71.88
72548;BME280;60570;50.848;6.776;2023-02-18T01:10:59;101263.34;;;12.17;72.05
72548;BME280;60570;50.848;6.776;2023-02-18T01:12:00;101261.72;;;12.16;71.71
72548;BME280;60570;50.848;6.776;2023-02-18T01:13:01;101256.94;;;12.16;71.73
72548;BME280;60570;50.848;6.776;2023-02-18T01:14:03;101263.34;;;12.17;72.09
72548;BME280;60570;50.848;6.776;2023-02-18T01:15:05;101258.09;;;12.15;72.42
72548;BME280;60570;50.848;6.776;2023-02-18T01:16:07;101258.59;;;12.17;71.80
72548;BME280;60570;50.848;6.776;2023-02-18T01:17:07;101251.06;;;12.18;71.88
72548;BME280;60570;50.848;6.776;2023-02-18T01:18:09;101243.84;;;12.17;72.14
72548;BME280;60570;50.848;6.776;2023-02-18T01:19:09;101244.66;;;12.17;71.96
72548;BME280;60570;50.848;6.776;2023-02-18T01:20:11;101245.50;;;12.18;71.97
72548;BME280;60570;50.848;6.776;2023-02-18T01:21:12;101252.19;;;12.17;72.15
72548;BME280;60570;50.848;6.776;2023-02-18T01:22:12;101247.44;;;12.17;71.54
72548;BME280;60570;50.848;6.776;2023-02-18T01:23:14;101245.00;;;12.16;71.89
72548;BME280;60570;50.848;6.776;2023-02-18T01:24:14;101245.78;;;12.16;71.69
72548;BME280;60570;50.848;6.776;2023-02-18T01:25:15;101244.16;;;12.15;71.68
72548;BME280;60570;50.848;6.776;2023-02-18T01:26:16;101246.63;;;12.17;71.91
72548;BME280;60570;50.848;6.776;2023-02-18T01:27:16;101252.19;;;12.17;71.95
72548;BME280;60570;50.848;6.776;2023-02-18T01:28:17;101255.81;;;12.17;71.72
72548;BME280;60570;50.848;6.776;2023-02-18T01:29:20;101247.44;;;12.17;71.89
72548;BME280;60570;50.848;6.776;2023-02-18T01:30:20;101245.50;;;12.18;71.47
72548;BME280;60570;50.848;6.776;2023-02-18T01:31:21;101243.00;;;12.16;71.58
72548;BME280;60570;50.848;6.776;2023-02-18T01:32:22;101242.22;;;12.16;71.79
72548;BME280;60570;50.848;6.776;2023-02-18T01:33:22;101236.63;;;12.16;72.08
72548;BME280;60570;50.848;6.776;2023-02-18T01:34:23;101232.19;;;12.15;72.13
72548;BME280;60570;50.848;6.776;2023-02-18T01:35:23;101236.63;;;12.16;71.91
72548;BME280;60570;50.848;6.776;2023-02-18T01:36:24;101235.81;;;12.15;71.78
72548;BME280;60570;50.848;6.776;2023-02-18T01:37:24;101230.72;;;12.17;71.56
72548;BME280;60570;50.848;6.776;2023-02-18T01:38:25;101219.59;;;12.17;71.67
72548;BME280;60570;50.848;6.776;2023-02-18T01:39:25;101219.09;;;12.15;71.59
72548;BME280;60570;50.848;6.776;2023-02-18T01:40:27;101216.31;;;12.15;71.73
72548;BME280;60570;50.848;6.776;2023-02-18T01:41:29;101217.94;;;12.16;71.61
72548;BME280;60570;50.848;6.776;2023-02-18T01:42:30;101222.72;;;12.16;72.02
72548;BME280;60570;50.848;6.776;2023-02-18T01:43:31;101223.84;;;12.15;71.57
72548;BME280;60570;50.848;6.776;2023-02-18T01:44:32;101225.50;;;12.16;71.70
72548;BME280;60570;50.848;6.776;2023-02-18T01:46:33;101218.28;;;12.15;71.67
72548;BME280;60570;50.848;6.776;2023-02-18T01:47:33;101222.38;;;12.17;71.60
72548;BME280;60570;50.848;6.776;2023-02-18T01:48:47;101224.34;;;12.17;71.98
72548;BME280;60570;50.848;6.776;2023-02-18T01:49:51;101229.91;;;12.17;71.73
72548;BME280;60570;50.848;6.776;2023-02-18T01:51:00;101205.66;;;12.17;71.85
72548;BME280;60570;50.848;6.776;2023-02-18T01:52:06;101214.34;;;12.16;72.02
72548;BME280;60570;50.848;6.776;2023-02-18T01:53:08;101212.69;;;12.15;71.79
72548;BME280;60570;50.848;6.776;2023-02-18T01:54:13;101203.22;;;12.16;71.66
72548;BME280;60570;50.848;6.776;2023-02-18T01:55:15;101207.47;;;12.13;72.07
72548;BME280;60570;50.848;6.776;2023-02-18T01:56:22;101198.78;;;12.15;71.69
72548;BME280;60570;50.848;6.776;2023-02-18T01:57:28;101195.66;;;12.16;71.73
72548;BME280;60570;50.848;6.776;2023-02-18T01:58:29;101197.66;;;12.16;72.04
72548;BME280;60570;50.848;6.776;2023-02-18T01:59:32;101197.16;;;12.14;71.72
72548;BME280;60570;50.848;6.776;2023-02-18T02:00:33;101196.81;;;12.15;71.80
72548;BME280;60570;50.848;6.776;2023-02-18T02:01:36;101186.50;;;12.16;71.58
72548;BME280;60570;50.848;6.776;2023-02-18T02:02:41;101198.44;;;12.16;71.59
72548;BME280;60570;50.848;6.776;2023-02-18T02:03:43;101195.19;;;12.14;71.98
72548;BME280;60570;50.848;6.776;2023-02-18T02:04:43;101201.22;;;12.16;71.72
72548;BME280;60570;50.848;6.776;2023-02-18T02:05:44;101188.81;;;12.14;71.79
72548;BME280;60570;50.848;6.776;2023-02-18T02:06:44;101182.41;;;12.13;71.87
72548;BME280;60570;50.848;6.776;2023-02-18T02:07:47;101186.84;;;12.14;71.85
72548;BME280;60570;50.848;6.776;2023-02-18T02:08:49;101184.84;;;12.15;71.58
72548;BME280;60570;50.848;6.776;2023-02-18T02:09:52;101177.66;;;12.14;71.84
72548;BME280;60570;50.848;6.776;2023-02-18T02:11:03;101174.03;;;12.13;71.89
72548;BME280;60570;50.848;6.776;2023-02-18T02:15:21;101171.59;;;12.12;71.81
72548;BME280;60570;50.848;6.776;2023-02-18T02:16:38;101167.66;;;12.13;71.93
72548;BME280;60570;50.848;6.776;2023-02-18T02:19:03;101166.84;;;12.12;71.54
72548;BME280;60570;50.848;6.776;2023-02-18T02:20:36;101164.88;;;12.13;71.94
72548;BME280;60570;50.848;6.776;2023-02-18T02:31:40;101155.72;;;12.12;71.70
72548;BME280;60570;50.848;6.776;2023-02-18T02:38:24;101149.66;;;12.10;71.86
72548;BME280;60570;50.848;6.776;2023-02-18T02:39:41;101153.22;;;12.11;71.79
72548;BME280;60570;50.848;6.776;2023-02-18T02:40:49;101158.00;;;12.10;71.69
72548;BME280;60570;50.848;6.776;2023-02-18T02:43:20;101148.81;;;12.10;71.74
72548;BME280;60570;50.848;6.776;2023-02-18T02:44:51;101147.50;;;12.07;72.11
72548;BME280;60570;50.848;6.776;2023-02-18T02:46:11;101149.97;;;12.09;72.11
72548;BME280;60570;50.848;6.776;2023-02-18T02:47:22;101146.38;;;12.08;71.97
72548;BME280;60570;50.848;6.776;2023-02-18T02:48:37;101146.69;;;12.07;72.38
72548;BME280;60570;50.848;6.776;2023-02-18T02:51:04;101134.41;;;12.08;72.13
72548;BME280;60570;50.848;6.776;2023-02-18T02:52:18;101138.66;;;12.05;72.25
72548;BME280;60570;50.848;6.776;2023-02-18T02:53:25;101132.47;;;12.08;72.30
72548;BME280;60570;50.848;6.776;2023-02-18T02:54:27;101138.50;;;12.10;72.42
72548;BME280;60570;50.848;6.776;2023-02-18T02:55:27;101130.47;;;12.09;72.04
72548;BME280;60570;50.848;6.776;2023-02-18T02:56:28;101134.91;;;12.10;72.08
72548;BME280;60570;50.848;6.776;2023-02-18T02:58:29;101133.25;;;12.09;72.16
72548;BME280;60570;50.848;6.776;2023-02-18T02:59:30;101126.06;;;12.08;72.23
72548;BME280;60570;50.848;6.776;2023-02-18T03:04:34;101132.47;;;12.08;72.17
72548;BME280;60570;50.848;6.776;2023-02-18T03:09:20;101123.13;;;12.04;72.49
72548;BME280;60570;50.848;6.776;2023-02-18T03:10:55;101103.94;;;12.03;72.51
72548;BME280;60570;50.848;6.776;2023-02-18T03:12:11;101105.25;;;12.05;72.46
72548;BME280;60570;50.848;6.776;2023-02-18T03:13:32;101107.22;;;12.05;72.46
72548;BME280;60570;50.848;6.776;2023-02-18T03:15:18;101103.28;;;12.06;72.12
72548;BME280;60570;50.848;6.776;2023-02-18T03:16:42;101091.31;;;12.05;72.13
72548;BME280;60570;50.848;6.776;2023-02-18T03:18:00;101088.53;;;12.05;72.41
72548;BME280;60570;50.848;6.776;2023-02-18T03:19:09;101093.78;;;12.07;72.29
72548;BME280;60570;50.848;6.776;2023-02-18T03:20:42;101086.94;;;12.04;72.48
72548;BME280;60570;50.848;6.776;2023-02-18T03:22:05;101086.59;;;12.06;72.42
72548;BME280;60570;50.848;6.776;2023-02-18T03:23:15;101079.69;;;12.03;72.44
72548;BME280;60570;50.848;6.776;2023-02-18T03:24:21;101082.97;;;12.05;72.31
72548;BME280;60570;50.848;6.776;2023-02-18T03:25:23;101080.19;;;12.05;72.55
72548;BME280;60570;50.848;6.776;2023-02-18T03:26:24;101083.31;;;12.04;72.42
72548;BME280;60570;50.848;6.776;2023-02-18T03:27:37;101086.94;;;12.04;71.98
72548;BME280;60570;50.848;6.776;2023-02-18T03:28:39;101079.69;;;12.03;72.15
72548;BME280;60570;50.848;6.776;2023-02-18T03:29:42;101077.75;;;12.04;72.18
72548;BME280;60570;50.848;6.776;2023-02-18T03:30:54;101079.69;;;12.03;72.42
72548;BME280;60570;50.848;6.776;2023-02-18T03:32:00;101081.00;;;12.06;72.16
72548;BME280;60570;50.848;6.776;2023-02-18T03:33:04;101076.59;;;12.05;72.21
72548;BME280;60570;50.848;6.776;2023-02-18T03:34:12;101081.00;;;12.06;72.24
72548;BME280;60570;50.848;6.776;2023-02-18T03:35:16;101074.63;;;12.05;72.34
72548;BME280;60570;50.848;6.776;2023-02-18T03:36:18;101076.59;;;12.05;72.31
72548;BME280;60570;50.848;6.776;2023-02-18T03:37:19;101073.00;;;12.04;72.55
72548;BME280;60570;50.848;6.776;2023-02-18T03:39:30;101068.22;;;12.13;72.00
72548;BME280;60570;50.848;6.776;2023-02-18T03:40:32;101081.16;;;12.09;71.81
72548;BME280;60570;50.848;6.776;2023-02-18T03:41:33;101068.72;;;12.07;72.33
72548;BME280;60570;50.848;6.776;2023-02-18T03:42:34;101077.06;;;12.07;72.37
72548;BME280;60570;50.848;6.776;2023-02-18T03:43:34;101069.06;;;12.05;72.35
72548;BME280;60570;50.848;6.776;2023-02-18T03:44:35;101073.78;;;12.05;72.43
72548;BME280;60570;50.848;6.776;2023-02-18T03:45:35;101076.59;;;12.05;72.23
72548;BME280;60570;50.848;6.776;2023-02-18T03:46:37;101075.78;;;12.04;72.30
72548;BME280;60570;50.848;6.776;2023-02-18T03:47:38;101072.50;;;12.02;72.05
72548;BME280;60570;50.848;6.776;2023-02-18T03:48:39;101069.06;;;12.05;72.26
72548;BME280;60570;50.848;6.776;2023-02-18T03:49:39;101068.22;;;12.05;72.18
72548;BME280;60570;50.848;6.776;2023-02-18T03:50:40;101075.09;;;12.07;72.32
72548;BME280;60570;50.848;6.776;2023-02-18T03:51:41;101068.22;;;12.05;72.29
72548;BME280;60570;50.848;6.776;2023-02-18T03:52:42;101066.13;;;12.02;72.30
72548;BME280;60570;50.848;6.776;2023-02-18T03:53:42;101071.69;;;12.02;72.66
72548;BME280;60570;50.848;6.776;2023-02-18T03:54:43;101068.41;;;12.00;72.28
72548;BME280;60570;50.848;6.776;2023-02-18T03:55:43;101074.47;;;12.02;72.27
72548;BME280;60570;50.848;6.776;2023-02-18T03:56:44;101066.13;;;12.02;72.27
72548;BME280;60570;50.848;6.776;2023-02-18T03:57:44;101063.34;;;12.02;72.45
72548;BME280;60570;50.848;6.776;2023-02-18T03:58:44;101061.03;;;12.04;72.58
72548;BME280;60570;50.848;6.776;2023-02-18T03:59:45;101069.88;;;12.06;72.50
72548;BME280;60570;50.848;6.776;2023-02-18T04:00:45;101068.56;;;12.03;72.31
72548;BME280;60570;50.848;6.776;2023-02-18T04:01:46;101071.69;;;12.02;72.56
72548;BME280;60570;50.848;6.776;2023-02-18T04:02:46;101066.94;;;12.02;72.60
72548;BME280;60570;50.848;6.776;2023-02-18T04:03:47;101062.50;;;12.01;72.47
72548;BME280;60570;50.848;6.776;2023-02-18T04:04:47;101066.13;;;12.02;72.45
72548;BME280;60570;50.848;6.776;2023-02-18T04:05:48;101068.91;;;12.02;72.29
72548;BME280;60570;50.848;6.776;2023-02-18T04:06:48;101065.44;;;12.05;72.11
72548;BME280;60570;50.848;6.776;2023-02-18T04:07:48;101062.16;;;12.03;72.41
72548;BME280;60570;50.848;6.776;2023-02-18T04:08:49;101065.28;;;12.01;72.24
72548;BME280;60570;50.848;6.776;2023-02-18T04:09:50;101064.66;;;12.04;72.30
72548;BME280;60570;50.848;6.776;2023-02-18T04:10:51;101061.38;;;12.02;72.40
72548;BME280;60570;50.848;6.776;2023-02-18T04:11:51;101067.28;;;12.01;72.30
72548;BME280;60570;50.848;6.776;2023-02-18T04:12:52;101050.88;;;11.99;72.39
72548;BME280;60570;50.848;6.776;2023-02-18T04:13:52;101054.50;;;12.00;72.25
72548;BME280;60570;50.848;6.776;2023-02-18T04:14:53;101056.44;;;11.99;72.35
72548;BME280;60570;50.848;6.776;2023-02-18T04:15:53;101060.88;;;12.00;72.31
72548;BME280;60570;50.848;6.776;2023-02-18T04:16:53;101052.88;;;11.99;72.12
72548;BME280;60570;50.848;6.776;2023-02-18T04:17:54;101045.66;;;11.98;72.20
72548;BME280;60570;50.848;6.776;2023-02-18T04:18:54;101043.34;;;12.00;72.01
72548;BME280;60570;50.848;6.776;2023-02-18T04:19:55;101043.69;;;11.98;72.18
72548;BME280;60570;50.848;6.776;2023-02-18T04:20:55;101039.09;;;12.02;72.38
72548;BME280;60570;50.848;6.776;2023-02-18T04:21:56;101045.00;;;12.01;72.55
72548;BME280;60570;50.848;6.776;2023-02-18T04:22:56;101043.34;;;12.00;72.26
72548;BME280;60570;50.848;6.776;2023-02-18T04:23:57;101036.97;;;11.99;72.42
72548;BME280;60570;50.848;6.776;2023-02-18T04:24:58;101036.97;;;11.99;72.21
72548;BME280;60570;50.848;6.776;2023-02-18T04:25:59;101035.50;;;12.02;72.36
72548;BME280;60570;50.848;6.776;2023-02-18T04:27:00;101039.25;;;11.97;72.20
72548;BME280;60570;50.848;6.776;2023-02-18T04:28:00;101045.00;;;12.01;72.44
72548;BME280;60570;50.848;6.776;2023-02-18T04:29:01;101038.94;;;11.99;72.17
72548;BME280;60570;50.848;6.776;2023-02-18T04:30:02;101047.78;;;12.01;72.19
72548;BME280;60570;50.848;6.776;2023-02-18T04:31:03;101045.00;;;12.01;72.60
72548;BME280;60570;50.848;6.776;2023-02-18T04:32:04;101046.47;;;11.98;72.46
72548;BME280;60570;50.848;6.776;2023-02-18T04:33:06;101040.09;;;11.98;72.42
72548;BME280;60570;50.848;6.776;2023-02-18T04:34:06;101042.88;;;11.98;72.50
72548;BME280;60570;50.848;6.776;2023-02-18T04:35:07;101042.03;;;11.97;72.26
72548;BME280;60570;50.848;6.776;2023-02-18T04:36:08;101043.69;;;11.98;72.01
72548;BME280;60570;50.848;6.776;2023-02-18T04:37:09;101041.75;;;11.99;72.56
72548;BME280;60570;50.848;6.776;2023-02-18T04:38:10;101036.47;;;11.97;72.38
72548;BME280;60570;50.848;6.776;2023-02-18T04:39:10;101044.81;;;11.97;72.64
72548;BME280;60570;50.848;6.776;2023-02-18T04:40:11;101041.25;;;11.97;72.61
72548;BME280;60570;50.848;6.776;2023-02-18T04:41:12;101044.81;;;11.97;72.48
72548;BME280;60570;50.848;6.776;2023-02-18T04:42:12;101045.16;;;11.96;72.33
72548;BME280;60570;50.848;6.776;2023-02-18T04:43:13;101046.00;;;11.96;72.55
72548;BME280;60570;50.848;6.776;2023-02-18T04:44:13;101033.69;;;11.97;72.54
72548;BME280;60570;50.848;6.776;2023-02-18T04:45:14;101039.25;;;11.97;72.46
72548;BME280;60570;50.848;6.776;2023-02-18T04:46:14;101038.94;;;11.99;72.27
72548;BME280;60570;50.848;6.776;2023-02-18T04:47:15;101027.63;;;11.95;72.17
72548;BME280;60570;50.848;6.776;2023-02-18T04:48:15;101026.50;;;11.96;72.58
72548;BME280;60570;50.848;6.776;2023-02-18T04:49:16;101027.00;;;11.98;72.25
72548;BME280;60570;50.848;6.776;2023-02-18T04:50:17;101025.69;;;11.96;72.27
72548;BME280;60570;50.848;6.776;2023-02-18T04:51:17;101028.94;;;11.98;72.14
72548;BME280;60570;50.848;6.776;2023-02-18T04:52:18;101024.06;;;11.95;72.36
72548;BME280;60570;50.848;6.776;2023-02-18T04:53:18;101024.38;;;11.93;72.53
72548;BME280;60570;50.848;6.776;2023-02-18T04:54:19;101026.16;;;11.98;72.73
72548;BME280;60570;50.848;6.776;2023-02-18T04:55:19;101027.00;;;11.98;72.66
72548;BME280;60570;50.848;6.776;2023-02-18T04:56:20;101024.53;;;11.97;72.46
72548;BME280;60570;50.848;6.776;2023-02-18T04:57:20;101022.91;;;11.96;72.29
72548;BME280;60570;50.848;6.776;2023-02-18T04:58:21;101029.28;;;11.96;72.45
72548;BME280;60570;50.848;6.776;2023-02-18T04:59:22;101018.16;;;11.96;72.45
72548;BME280;60570;50.848;6.776;2023-02-18T05:00:22;101017.66;;;11.94;72.49
72548;BME280;60570;50.848;6.776;2023-02-18T05:01:23;101027.31;;;11.97;72.45
72548;BME280;60570;50.848;6.776;2023-02-18T05:02:23;101013.22;;;11.93;72.55
72548;BME280;60570;50.848;6.776;2023-02-18T05:03:24;101022.91;;;11.96;72.71
72548;BME280;60570;50.848;6.776;2023-02-18T05:04:24;101023.72;;;11.96;72.48
72548;BME280;60570;50.848;6.776;2023-02-18T05:05:25;101019.28;;;11.95;72.80
72548;BME280;60570;50.848;6.776;2023-02-18T05:06:25;101014.88;;;11.94;72.84
72548;BME280;60570;50.848;6.776;2023-02-18T05:07:26;101012.91;;;11.95;72.65
72548;BME280;60570;50.848;6.776;2023-02-18T05:08:26;101010.94;;;11.95;72.70
72548;BME280;60570;50.848;6.776;2023-02-18T05:09:26;101016.50;;;11.95;72.70
72548;BME280;60570;50.848;6.776;2023-02-18T05:10:27;101020.44;;;11.94;72.48
72548;BME280;60570;50.848;6.776;2023-02-18T05:11:27;101016.00;;;11.93;72.59
72548;BME280;60570;50.848;6.776;2023-02-18T05:12:28;101017.19;;;11.92;72.80
72548;BME280;60570;50.848;6.776;2023-02-18T05:13:28;101016.50;;;11.95;72.85
72548;BME280;60570;50.848;6.776;2023-02-18T05:14:29;101024.38;;;11.93;72.59
72548;BME280;60570;50.848;6.776;2023-02-18T05:15:29;101014.88;;;11.94;72.57
72548;BME280;60570;50.848;6.776;2023-02-18T05:16:30;101013.72;;;11.95;72.67
72548;BME280;60570;50.848;6.776;2023-02-18T05:17:31;101014.06;;;11.94;72.49
72548;BME280;60570;50.848;6.776;2023-02-18T05:18:31;101015.22;;;11.93;72.75
72548;BME280;60570;50.848;6.776;2023-02-18T05:19:32;101012.91;;;11.95;72.57
72548;BME280;60570;50.848;6.776;2023-02-18T05:20:32;101005.69;;;11.94;72.71
72548;BME280;60570;50.848;6.776;2023-02-18T05:21:34;101005.22;;;11.92;72.41
72548;BME280;60570;50.848;6.776;2023-02-18T05:22:34;101005.22;;;11.92;72.64
72548;BME280;60570;50.848;6.776;2023-02-18T05:23:35;101012.44;;;11.93;72.54
72548;BME280;60570;50.848;6.776;2023-02-18T05:24:35;101012.44;;;11.93;72.89
72548;BME280;60570;50.848;6.776;2023-02-18T05:25:35;101004.09;;;11.93;72.45
72548;BME280;60570;50.848;6.776;2023-02-18T05:26:36;101006.88;;;11.93;72.76
72548;BME280;60570;50.848;6.776;2023-02-18T05:27:36;101014.38;;;11.92;72.85
72548;BME280;60570;50.848;6.776;2023-02-18T05:28:37;100999.66;;;11.92;72.64
72548;BME280;60570;50.848;6.776;2023-02-18T05:29:37;101001.59;;;11.91;72.57
72548;BME280;60570;50.848;6.776;2023-02-18T05:30:38;101000.81;;;11.91;72.48
72548;BME280;60570;50.848;6.776;2023-02-18T05:31:39;100999.47;;;11.97;72.69
72548;BME280;60570;50.848;6.776;2023-02-18T05:32:39;101001.78;;;11.95;72.26
72548;BME280;60570;50.848;6.776;2023-02-18T05:33:40;100997.84;;;11.96;72.47
72548;BME280;60570;50.848;6.776;2023-02-18T05:34:40;101004.09;;;11.93;72.60
72548;BME280;60570;50.848;6.776;2023-02-18T05:35:41;100996.53;;;11.93;72.53
72548;BME280;60570;50.848;6.776;2023-02-18T05:36:41;100991.63;;;11.90;72.70
72548;BME280;60570;50.848;6.776;2023-02-18T05:37:42;100999.50;;;11.88;72.85
72548;BME280;60570;50.848;6.776;2023-02-18T05:38:42;101007.19;;;11.91;72.80
72548;BME280;60570;50.848;6.776;2023-02-18T05:39:43;101001.13;;;11.89;72.79
72548;BME280;60570;50.848;6.776;2023-02-18T05:40:44;100999.50;;;11.88;72.80
72548;BME280;60570;50.848;6.776;2023-02-18T05:41:45;100994.91;;;11.92;72.62
72548;BME280;60570;50.848;6.776;2023-02-18T05:42:45;100994.06;;;11.92;72.60
72548;BME280;60570;50.848;6.776;2023-02-18T05:43:46;100996.03;;;11.91;72.70
72548;BME280;60570;50.848;6.776;2023-02-18T05:45:05;100986.88;;;11.91;72.77
72548;BME280;60570;50.848;6.776;2023-02-18T05:46:05;100991.28;;;11.92;72.44
72548;BME280;60570;50.848;6.776;2023-02-18T05:47:09;100996.03;;;11.91;72.74
72548;BME280;60570;50.848;6.776;2023-02-18T05:48:09;100987.38;;;11.93;72.65
72548;BME280;60570;50.848;6.776;2023-02-18T05:49:10;100992.94;;;11.93;72.85
72548;BME280;60570;50.848;6.776;2023-02-18T05:50:11;100984.59;;;11.93;72.60
72548;BME280;60570;50.848;6.776;2023-02-18T05:51:11;100976.53;;;11.91;72.57
72548;BME280;60570;50.848;6.776;2023-02-18T05:52:12;100986.88;;;11.91;72.69
72548;BME280;60570;50.848;6.776;2023-02-18T05:53:12;100988.03;;;11.90;72.77
72548;BME280;60570;50.848;6.776;2023-02-18T05:54:12;100982.47;;;11.90;72.56
72548;BME280;60570;50.848;6.776;2023-02-18T05:55:13;100979.66;;;11.90;72.47
72548;BME280;60570;50.848;6.776;2023-02-18T05:56:13;100985.25;;;11.90;72.73
72548;BME280;60570;50.848;6.776;2023-02-18T05:57:14;100982.59;;;11.93;72.53
72548;BME280;60570;50.848;6.776;2023-02-18T05:58:14;100991.78;;;11.94;72.54
72548;BME280;60570;50.848;6.776;2023-02-18T05:59:16;100980.66;;;11.94;72.48
72548;BME280;60570;50.848;6.776;2023-02-18T06:00:17;100979.34;;;11.91;72.53
72548;BME280;60570;50.848;6.776;2023-02-18T06:01:18;100976.25;;;11.93;72.43